createdAt,value
2022-12-17T00:00:32.688Z,7.66
2022-12-17T00:03:19.943Z,7.35
2022-12-17T00:06:06.570Z,7.50
2022-12-17T00:08:52.911Z,7.60
2022-12-17T00:11:39.136Z,7.61
2022-12-17T00:14:26.042Z,7.61
2022-12-17T00:17:12.516Z,7.59
2022-12-17T00:19:58.762Z,7.57
2022-12-17T00:22:45.023Z,7.68
2022-12-17T00:25:31.811Z,7.73
2022-12-17T00:28:18.246Z,7.75
2022-12-17T00:31:10.401Z,7.43
2022-12-17T00:33:56.409Z,7.31
2022-12-17T00:36:43.171Z,7.22
2022-12-17T00:39:29.297Z,7.24
2022-12-17T00:42:15.681Z,7.05
2022-12-17T00:45:02.087Z,7.20
2022-12-17T00:47:48.166Z,7.24
2022-12-17T00:50:35.151Z,7.40
2022-12-17T00:53:22.053Z,7.47
2022-12-17T00:56:07.892Z,7.33
2022-12-17T00:58:55.798Z,7.25
2022-12-17T01:01:42.352Z,7.23
2022-12-17T01:04:28.527Z,7.02
2022-12-17T01:07:15.272Z,7.02
2022-12-17T01:10:21.258Z,7.11
2022-12-17T01:13:07.134Z,7.17
2022-12-17T01:15:53.799Z,7.35
2022-12-17T01:18:42.841Z,7.25
2022-12-17T01:21:28.923Z,7.34
2022-12-17T01:24:15.548Z,7.36
2022-12-17T01:27:02.267Z,7.27
2022-12-17T01:29:49.025Z,7.22
2022-12-17T01:32:34.988Z,7.30
2022-12-17T01:35:21.172Z,7.32
2022-12-17T01:38:11.991Z,7.38
2022-12-17T01:40:58.861Z,7.57
2022-12-17T01:43:56.687Z,7.57
2022-12-17T01:46:46.229Z,7.62
2022-12-17T01:49:34.015Z,7.60
2022-12-17T01:52:21.815Z,7.57
2022-12-17T01:55:08.694Z,7.54
2022-12-17T01:57:55.814Z,7.45
2022-12-17T02:00:42.550Z,7.51
2022-12-17T02:03:34.007Z,7.63
2022-12-17T02:06:25.362Z,7.44
2022-12-17T02:09:36.304Z,7.76
2022-12-17T02:12:32.004Z,7.66
2022-12-17T02:15:29.671Z,7.75
2022-12-17T02:18:21.246Z,7.77
2022-12-17T02:21:12.789Z,7.69
2022-12-17T02:24:05.391Z,7.67
2022-12-17T02:27:04.401Z,7.69
2022-12-17T02:29:57.279Z,7.88
2022-12-17T02:32:44.797Z,7.85
2022-12-17T02:35:38.937Z,7.79
2022-12-17T02:38:44.782Z,7.90
2022-12-17T02:41:37.889Z,7.98
2022-12-17T02:44:27.504Z,7.77
2022-12-17T02:47:16.391Z,7.80
2022-12-17T02:50:08.246Z,7.88
2022-12-17T02:53:03.398Z,7.88
2022-12-17T02:55:50.389Z,7.64
2022-12-17T02:58:36.856Z,7.69
2022-12-17T03:01:23.694Z,7.56
2022-12-17T03:04:10.406Z,7.62
2022-12-17T03:06:57.271Z,7.61
2022-12-17T03:09:43.621Z,7.54
2022-12-17T03:12:29.598Z,7.60
2022-12-17T03:15:16.194Z,7.65
2022-12-17T03:18:02.608Z,7.58
2022-12-17T03:20:49.064Z,7.56
2022-12-17T03:23:36.012Z,7.54
2022-12-17T03:26:22.865Z,7.68
2022-12-17T03:29:09.230Z,7.86
2022-12-17T03:31:56.010Z,7.76
2022-12-17T03:34:42.739Z,7.64
2022-12-17T03:37:29.532Z,7.64
2022-12-17T03:40:29.273Z,7.60
2022-12-17T03:43:15.531Z,7.66
2022-12-17T03:46:02.134Z,7.65
2022-12-17T03:48:48.292Z,7.65
2022-12-17T03:51:35.022Z,7.58
2022-12-17T03:54:23.491Z,7.52
2022-12-17T03:57:15.803Z,7.59
2022-12-17T04:00:02.598Z,7.62
2022-12-17T04:02:58.968Z,7.48
2022-12-17T04:05:45.132Z,7.54
2022-12-17T04:08:31.041Z,7.63
2022-12-17T04:11:18.156Z,7.66
2022-12-17T04:14:04.631Z,7.66
2022-12-17T04:16:50.832Z,7.54
2022-12-17T04:19:38.257Z,7.40
2022-12-17T04:22:24.832Z,7.50
2022-12-17T04:25:11.628Z,7.43
2022-12-17T04:27:58.360Z,7.26
2022-12-17T04:30:44.868Z,7.43
2022-12-17T04:33:31.589Z,7.36
2022-12-17T04:36:18.451Z,7.46
2022-12-17T04:39:05.039Z,7.48
2022-12-17T04:41:51.297Z,7.61
2022-12-17T04:44:37.463Z,7.52
2022-12-17T04:47:23.414Z,7.44
2022-12-17T04:50:10.223Z,7.40
2022-12-17T04:52:56.365Z,7.52
2022-12-17T04:55:42.600Z,7.22
2022-12-17T04:58:28.683Z,7.17
2022-12-17T05:01:15.522Z,7.22
2022-12-17T05:04:01.918Z,7.21
2022-12-17T05:06:48.105Z,7.10
2022-12-17T05:09:34.187Z,7.03
2022-12-17T05:12:20.562Z,6.99
2022-12-17T05:15:06.523Z,6.93
2022-12-17T05:17:53.369Z,6.83
2022-12-17T05:20:39.559Z,6.67
2022-12-17T05:23:27.629Z,6.72
2022-12-17T05:26:25.866Z,6.78
2022-12-17T05:29:15.770Z,6.67
2022-12-17T05:32:02.916Z,6.61
2022-12-17T05:34:49.291Z,6.50
2022-12-17T05:37:35.243Z,6.39
2022-12-17T05:40:22.506Z,6.37
2022-12-17T05:43:20.202Z,6.33
2022-12-17T05:46:07.218Z,6.33
2022-12-17T05:48:54.946Z,6.40
2022-12-17T05:51:41.879Z,6.33
2022-12-17T05:54:28.261Z,6.25
2022-12-17T05:57:15.277Z,6.19
2022-12-17T06:00:02.171Z,6.17
2022-12-17T06:02:59.006Z,6.11
2022-12-17T06:05:45.740Z,6.12
2022-12-17T06:08:31.801Z,6.14
2022-12-17T06:11:19.506Z,6.08
2022-12-17T06:14:06.428Z,6.13
2022-12-17T06:16:53.137Z,6.01
2022-12-17T06:19:39.269Z,5.86
2022-12-17T06:22:29.999Z,6.00
2022-12-17T06:25:16.238Z,6.16
2022-12-17T06:28:02.449Z,6.21
2022-12-17T06:30:49.135Z,6.34
2022-12-17T06:33:36.196Z,6.49
2022-12-17T06:36:23.119Z,6.51
2022-12-17T06:39:09.552Z,6.67
2022-12-17T06:42:02.114Z,6.72
2022-12-17T06:44:50.936Z,6.75
2022-12-17T06:47:38.450Z,6.90
2022-12-17T06:50:25.028Z,7.02
2022-12-17T06:53:22.209Z,6.90
2022-12-17T06:56:09.567Z,6.80
2022-12-17T06:58:56.482Z,6.89
2022-12-17T07:01:43.290Z,6.86
2022-12-17T07:04:29.648Z,6.95
2022-12-17T07:07:15.858Z,7.01
2022-12-17T07:10:02.717Z,7.07
2022-12-17T07:12:49.574Z,7.13
2022-12-17T07:15:36.570Z,7.13
2022-12-17T07:18:23.455Z,7.21
2022-12-17T07:21:12.014Z,7.09
2022-12-17T07:23:58.552Z,7.07
2022-12-17T07:26:44.622Z,6.96
2022-12-17T07:29:30.593Z,6.91
2022-12-17T07:32:17.124Z,7.10
2022-12-17T07:35:03.360Z,7.32
2022-12-17T07:37:49.794Z,7.12
2022-12-17T07:40:36.570Z,7.22
2022-12-17T07:43:31.131Z,7.21
2022-12-17T07:46:18.372Z,7.21
2022-12-17T07:49:04.556Z,7.36
2022-12-17T07:51:51.370Z,7.47
2022-12-17T07:54:38.158Z,7.23
2022-12-17T07:57:24.873Z,7.24
2022-12-17T08:00:11.158Z,7.51
2022-12-17T08:02:57.692Z,7.31
2022-12-17T08:05:43.976Z,7.33
2022-12-17T08:08:33.204Z,7.30
2022-12-17T08:11:19.806Z,7.32
2022-12-17T08:14:05.800Z,7.43
2022-12-17T08:16:52.420Z,7.40
2022-12-17T08:19:39.004Z,7.24
2022-12-17T08:22:25.323Z,7.24
2022-12-17T08:25:11.657Z,7.39
2022-12-17T08:27:57.562Z,7.50
2022-12-17T08:30:44.262Z,7.45
2022-12-17T08:33:32.117Z,7.66
2022-12-17T08:36:18.878Z,7.90
2022-12-17T08:39:04.878Z,7.93
2022-12-17T08:41:54.456Z,7.69
2022-12-17T08:44:43.035Z,7.73
2022-12-17T08:47:29.526Z,7.56
2022-12-17T08:50:16.334Z,7.59
2022-12-17T08:53:03.170Z,7.45
2022-12-17T08:55:49.512Z,7.49
2022-12-17T08:58:36.250Z,7.43
2022-12-17T09:01:23.263Z,7.53
2022-12-17T09:04:10.142Z,7.51
2022-12-17T09:06:56.518Z,7.41
2022-12-17T09:09:42.679Z,7.62
2022-12-17T09:12:29.531Z,7.83
2022-12-17T09:15:16.102Z,7.67
2022-12-17T09:18:02.756Z,7.85
2022-12-17T09:20:49.324Z,7.74
2022-12-17T09:23:36.599Z,7.63
2022-12-17T09:26:23.580Z,7.78
2022-12-17T09:29:10.075Z,7.77
2022-12-17T09:31:56.638Z,7.63
2022-12-17T09:34:43.308Z,7.55
2022-12-17T09:37:29.489Z,7.67
2022-12-17T09:40:15.959Z,7.93
2022-12-17T09:43:12.887Z,8.19
2022-12-17T09:46:07.638Z,8.00
2022-12-17T09:49:26.853Z,8.04
2022-12-17T09:52:13.105Z,8.11
2022-12-17T09:55:03.504Z,8.19
2022-12-17T09:57:55.550Z,8.36
2022-12-17T10:00:45.926Z,8.58
2022-12-17T10:03:38.299Z,8.46
2022-12-17T10:06:32.244Z,8.47
2022-12-17T10:09:20.024Z,8.68
2022-12-17T10:12:06.524Z,8.44
2022-12-17T10:14:53.148Z,8.51
2022-12-17T10:17:43.347Z,8.63
2022-12-17T10:20:56.200Z,8.56
2022-12-17T10:23:53.160Z,8.53
2022-12-17T10:26:44.295Z,8.64
2022-12-17T10:29:36.322Z,8.66
2022-12-17T10:32:39.183Z,8.60
2022-12-17T10:35:42.155Z,8.63
2022-12-17T10:38:31.282Z,8.80
2022-12-17T10:41:17.593Z,8.93
2022-12-17T10:44:04.062Z,9.17
2022-12-17T10:46:52.802Z,9.11
2022-12-17T10:49:42.082Z,9.64
2022-12-17T10:52:49.585Z,10.22
2022-12-17T10:55:42.450Z,10.51
2022-12-17T10:58:34.365Z,10.90
2022-12-17T11:01:22.910Z,11.01
2022-12-17T11:04:10.662Z,10.94
2022-12-17T11:07:12.169Z,10.88
2022-12-17T11:10:09.422Z,11.65
2022-12-17T11:13:14.839Z,11.89
2022-12-17T11:16:16.694Z,12.21
2022-12-17T11:19:17.740Z,13.33
2022-12-17T11:22:13.215Z,14.07
2022-12-17T11:25:13.122Z,14.86
2022-12-17T11:28:06.191Z,13.64
2022-12-17T11:31:01.516Z,13.87
2022-12-17T11:34:00.654Z,13.98
2022-12-17T11:36:58.964Z,13.31
2022-12-17T11:40:12.027Z,13.03
2022-12-17T11:43:06.593Z,12.21
2022-12-17T11:46:14.842Z,12.18
2022-12-17T11:49:36.340Z,12.70
2022-12-17T11:52:40.151Z,12.79
2022-12-17T11:55:42.019Z,12.40
2022-12-17T11:58:41.149Z,12.78
2022-12-17T12:01:34.068Z,12.69
2022-12-17T12:04:38.487Z,12.60
2022-12-17T12:07:55.208Z,12.79
2022-12-17T12:10:51.688Z,13.45
2022-12-17T12:13:45.400Z,13.30
2022-12-17T12:16:53.411Z,13.57
2022-12-17T12:19:49.419Z,13.76
2022-12-17T12:23:05.186Z,13.44
2022-12-17T12:26:17.072Z,13.55
2022-12-17T12:29:21.111Z,15.59
2022-12-17T12:32:35.620Z,16.37
2022-12-17T12:35:23.254Z,16.39
2022-12-17T12:38:09.383Z,17.32
2022-12-17T12:41:05.711Z,17.54
2022-12-17T12:44:17.452Z,17.30
2022-12-17T12:47:16.836Z,17.38
2022-12-17T12:50:28.096Z,16.19
2022-12-17T12:53:16.304Z,16.19
2022-12-17T12:56:03.189Z,15.26
2022-12-17T12:58:51.867Z,15.32
2022-12-17T13:01:50.175Z,15.15
2022-12-17T13:04:56.181Z,15.27
2022-12-17T13:07:27.515Z,14.91
2022-12-17T13:09:58.098Z,15.44
2022-12-17T13:12:54.399Z,16.62
2022-12-17T13:15:36.302Z,16.63
2022-12-17T13:18:17.139Z,16.89
2022-12-17T13:20:55.691Z,16.63
2022-12-17T13:23:33.569Z,15.92
2022-12-17T13:26:14.974Z,14.94
2022-12-17T13:28:48.060Z,15.56
2022-12-17T13:31:21.854Z,14.63
2022-12-17T13:34:10.827Z,15.03
2022-12-17T13:37:01.673Z,16.15
2022-12-17T13:39:46.759Z,16.52
2022-12-17T13:42:27.034Z,16.21
2022-12-17T13:44:55.152Z,16.43
2022-12-17T13:47:30.851Z,16.27
2022-12-17T13:50:32.890Z,16.19
2022-12-17T13:52:49.492Z,15.63
2022-12-17T13:55:24.287Z,14.75
2022-12-17T13:57:53.654Z,14.67
2022-12-17T14:00:27.500Z,14.86
2022-12-17T14:02:55.056Z,15.49
2022-12-17T14:05:42.528Z,15.47
2022-12-17T14:08:17.308Z,15.01
2022-12-17T14:10:52.883Z,15.70
2022-12-17T14:13:20.597Z,16.20
2022-12-17T14:15:51.454Z,17.56
2022-12-17T14:18:21.018Z,17.27
2022-12-17T14:20:56.836Z,17.28
2022-12-17T14:23:33.061Z,17.30
2022-12-17T14:26:01.513Z,17.97
2022-12-17T14:28:33.654Z,18.78
2022-12-17T14:31:27.745Z,17.10
2022-12-17T14:34:08.164Z,16.19
2022-12-17T14:36:39.640Z,14.81
2022-12-17T14:39:19.642Z,13.76
2022-12-17T14:42:07.164Z,13.22
2022-12-17T14:44:35.414Z,12.81
2022-12-17T14:47:18.825Z,12.36
2022-12-17T14:49:58.692Z,12.24
2022-12-17T14:52:34.000Z,11.91
2022-12-17T14:55:02.731Z,11.73
2022-12-17T14:57:30.247Z,11.62
2022-12-17T14:59:57.767Z,11.41
2022-12-17T15:02:28.490Z,11.19
2022-12-17T15:05:02.195Z,11.12
2022-12-17T15:07:31.653Z,11.01
2022-12-17T15:09:59.692Z,10.70
2022-12-17T15:12:28.245Z,10.68
2022-12-17T15:14:55.775Z,10.52
2022-12-17T15:17:23.833Z,10.46
2022-12-17T15:19:56.108Z,10.33
2022-12-17T15:22:24.638Z,10.31
2022-12-17T15:24:52.712Z,10.23
2022-12-17T15:27:20.757Z,9.92
2022-12-17T15:29:48.626Z,9.97
2022-12-17T15:32:21.141Z,9.86
2022-12-17T15:34:49.074Z,9.90
2022-12-17T15:37:21.049Z,9.84
2022-12-17T15:39:51.960Z,9.73
2022-12-17T15:42:38.340Z,9.69
2022-12-17T15:45:07.120Z,9.51
2022-12-17T15:47:34.830Z,9.39
2022-12-17T15:50:03.940Z,9.34
2022-12-17T15:52:31.779Z,9.29
2022-12-17T15:55:00.898Z,9.24
2022-12-17T15:57:28.551Z,9.13
2022-12-17T15:59:56.002Z,9.02
2022-12-17T16:02:23.869Z,8.94
2022-12-17T16:04:52.796Z,8.83
2022-12-17T16:07:20.500Z,8.81
2022-12-17T16:09:51.399Z,8.73
2022-12-17T16:12:18.906Z,8.73
2022-12-17T16:14:46.417Z,8.76
2022-12-17T16:17:14.009Z,8.69
2022-12-17T16:19:41.482Z,8.62
2022-12-17T16:22:09.041Z,8.58
2022-12-17T16:24:36.634Z,8.42
2022-12-17T16:27:04.970Z,8.34
2022-12-17T16:29:32.833Z,8.26
2022-12-17T16:32:01.451Z,8.18
2022-12-17T16:34:29.453Z,8.14
2022-12-17T16:36:57.228Z,8.10
2022-12-17T16:39:24.808Z,8.02
2022-12-17T16:41:52.595Z,8.02
2022-12-17T16:44:24.395Z,7.99
2022-12-17T16:46:54.862Z,7.94
2022-12-17T16:49:24.459Z,7.95
2022-12-17T16:51:54.255Z,7.90
2022-12-17T16:54:27.292Z,7.88
2022-12-17T16:56:55.573Z,7.76
2022-12-17T16:59:23.671Z,7.73
2022-12-17T17:01:52.685Z,7.75
2022-12-17T17:04:23.049Z,7.65
2022-12-17T17:06:55.818Z,7.70
2022-12-17T17:09:25.490Z,7.64
2022-12-17T17:11:58.835Z,7.62
2022-12-17T17:14:27.515Z,7.59
2022-12-17T17:16:55.077Z,7.44
2022-12-17T17:19:23.083Z,7.41
2022-12-17T17:21:54.262Z,7.45
2022-12-17T17:24:25.533Z,7.39
2022-12-17T17:26:54.420Z,7.41
2022-12-17T17:29:22.501Z,7.38
2022-12-17T17:34:39.266Z,7.25
2022-12-17T17:37:07.206Z,7.26
2022-12-17T17:39:34.921Z,7.28
2022-12-17T17:42:03.210Z,7.19
2022-12-17T17:44:30.838Z,7.15
2022-12-17T17:46:58.615Z,7.09
2022-12-17T17:49:26.350Z,7.08
2022-12-17T17:52:12.268Z,7.02
2022-12-17T17:54:40.915Z,6.99
2022-12-17T17:57:09.954Z,7.02
2022-12-17T17:59:39.483Z,7.07
2022-12-17T18:02:08.941Z,7.04
2022-12-17T18:04:36.960Z,6.96
2022-12-17T18:09:52.745Z,6.96
2022-12-17T18:12:40.898Z,6.91
2022-12-17T18:15:18.010Z,6.87
2022-12-17T18:17:51.623Z,6.85
2022-12-17T18:20:19.304Z,6.79
2022-12-17T18:22:47.633Z,6.80
2022-12-17T18:25:16.439Z,6.76
2022-12-17T18:27:44.750Z,6.79
2022-12-17T18:30:12.870Z,6.76
2022-12-17T18:32:41.889Z,6.82
2022-12-17T18:35:10.428Z,6.84
2022-12-17T18:37:38.621Z,6.87
2022-12-17T18:40:07.386Z,6.73
2022-12-17T18:42:54.271Z,6.81
2022-12-17T18:45:22.218Z,6.72
2022-12-17T18:47:50.698Z,6.76
2022-12-17T18:50:18.348Z,6.66
2022-12-17T18:52:45.865Z,6.64
2022-12-17T18:55:13.363Z,6.62
2022-12-17T18:57:41.473Z,6.61
2022-12-17T19:00:09.985Z,6.56
2022-12-17T19:02:38.005Z,6.57
2022-12-17T19:05:05.850Z,6.50
2022-12-17T19:07:33.403Z,6.47
2022-12-17T19:10:00.990Z,6.59
2022-12-17T19:12:29.226Z,6.56
2022-12-17T19:14:56.750Z,6.57
2022-12-17T19:17:24.435Z,6.53
2022-12-17T19:19:51.930Z,6.50
2022-12-17T19:22:19.463Z,6.48
2022-12-17T19:24:47.149Z,6.45
2022-12-17T19:27:15.241Z,6.44
2022-12-17T19:29:47.630Z,6.54
2022-12-17T19:32:16.876Z,6.61
2022-12-17T19:34:44.936Z,6.61
2022-12-17T19:37:13.280Z,6.60
2022-12-17T19:39:41.252Z,6.53
2022-12-17T19:42:24.599Z,6.43
2022-12-17T19:44:54.346Z,6.43
2022-12-17T19:47:23.448Z,6.42
2022-12-17T19:49:51.569Z,6.42
2022-12-17T19:52:19.760Z,6.41
2022-12-17T19:54:49.712Z,6.26
2022-12-17T19:57:17.527Z,6.20
2022-12-17T19:59:45.194Z,6.28
2022-12-17T20:02:13.581Z,6.25
2022-12-17T20:04:41.654Z,6.23
2022-12-17T20:07:09.527Z,6.24
2022-12-17T20:09:37.121Z,6.20
2022-12-17T20:12:04.806Z,6.18
2022-12-17T20:14:34.311Z,6.22
2022-12-17T20:17:04.303Z,6.28
2022-12-17T20:19:33.403Z,6.21
2022-12-17T20:22:04.379Z,6.16
2022-12-17T20:24:32.760Z,6.10
2022-12-17T20:27:01.083Z,6.12
2022-12-17T20:29:29.611Z,6.05
2022-12-17T20:31:57.370Z,6.06
2022-12-17T20:34:26.164Z,6.01
2022-12-17T20:36:54.618Z,5.97
2022-12-17T20:39:27.282Z,5.97
2022-12-17T20:41:57.135Z,6.04
2022-12-17T20:44:24.935Z,6.03
2022-12-17T20:46:53.177Z,6.02
2022-12-17T20:49:20.888Z,5.92
2022-12-17T20:51:48.489Z,5.91
2022-12-17T20:54:16.119Z,5.92
2022-12-17T20:56:44.311Z,5.84
2022-12-17T20:59:18.084Z,5.92
2022-12-17T21:01:51.459Z,5.93
2022-12-17T21:04:22.261Z,5.92
2022-12-17T21:06:50.502Z,5.89
2022-12-17T21:09:20.273Z,5.85
2022-12-17T21:11:48.648Z,5.87
2022-12-17T21:14:17.977Z,5.81
2022-12-17T21:16:46.486Z,5.81
2022-12-17T21:19:17.738Z,5.91
2022-12-17T21:21:46.091Z,5.82
2022-12-17T21:24:13.707Z,5.75
2022-12-17T21:26:44.334Z,5.74
2022-12-17T21:29:12.576Z,5.80
2022-12-17T21:31:47.485Z,5.70
2022-12-17T21:34:22.765Z,5.78
2022-12-17T21:36:51.541Z,5.68
2022-12-17T21:39:20.579Z,5.69
2022-12-17T21:42:09.332Z,5.60
2022-12-17T21:44:38.022Z,5.56
2022-12-17T21:47:05.839Z,5.53
2022-12-17T21:49:33.528Z,5.53
2022-12-17T21:52:02.077Z,5.48
2022-12-17T21:54:29.905Z,5.39
2022-12-17T21:56:58.011Z,5.41
2022-12-17T21:59:25.818Z,5.46
2022-12-17T22:01:54.345Z,5.45
2022-12-17T22:04:22.204Z,5.41
2022-12-17T22:06:53.977Z,5.36
2022-12-17T22:09:32.422Z,5.35
2022-12-17T22:12:26.431Z,5.30
2022-12-17T22:14:54.469Z,5.33
2022-12-17T22:17:22.655Z,5.24
2022-12-17T22:19:50.456Z,5.24
2022-12-17T22:22:18.054Z,5.28
2022-12-17T22:24:46.648Z,5.21
2022-12-17T22:27:14.858Z,5.15
2022-12-17T22:30:01.120Z,5.21
2022-12-17T22:32:47.372Z,5.27
2022-12-17T22:37:24.259Z,5.28
2022-12-17T22:41:45.993Z,5.33
2022-12-17T22:44:29.741Z,5.43
2022-12-17T22:44:40.585Z,5.41
2022-12-17T22:46:32.337Z,5.36
2022-12-17T22:49:00.504Z,5.37
2022-12-17T22:51:40.762Z,5.35
2022-12-17T22:54:12.256Z,5.37
2022-12-17T22:57:27.917Z,5.46
2022-12-17T22:59:30.078Z,5.48
2022-12-17T23:01:58.360Z,5.55
2022-12-17T23:04:26.147Z,5.72
2022-12-17T23:06:53.873Z,5.74
2022-12-17T23:09:21.439Z,5.82
2022-12-17T23:11:49.240Z,5.79
2022-12-17T23:14:17.880Z,5.78
2022-12-17T23:16:46.539Z,5.82
2022-12-17T23:19:14.617Z,5.66
2022-12-17T23:21:42.761Z,5.62
2022-12-17T23:24:10.363Z,5.69
2022-12-17T23:26:38.263Z,5.83
2022-12-17T23:29:08.541Z,5.82
2022-12-17T23:31:40.147Z,5.90
2022-12-17T23:34:08.822Z,5.90
2022-12-17T23:36:37.079Z,5.88
2022-12-17T23:39:05.440Z,5.99
2022-12-17T23:41:33.398Z,5.99
2022-12-17T23:44:01.789Z,6.01
2022-12-17T23:46:30.445Z,6.02
2022-12-17T23:48:58.910Z,5.98
2022-12-17T23:51:26.735Z,5.97
2022-12-17T23:53:54.475Z,6.07
2022-12-17T23:56:24.915Z,6.05
2022-12-17T23:58:57.831Z,6.13
